Time;durP1;ratioP1;P1;durP2;ratioP2;P2;SDS_P1;SDS_P2;PMS_P1;PMS_P2;Temp;Humidity;BMP_temperature;BMP_pressure;BME280_temperature;BME280_humidity;BME280_pressure;Samples;Min_cycle;Max_cycle;Signal;HPM_P1;HPM_P2
2022/10/23 00:01:42;;;;;;;6.35;1.58;;;;;;;24.20;45.09;100037.16;5014264;28;20026;-57
2022/10/23 00:04:17;;;;;;;3.58;1.30;;;;;;;24.19;45.33;100034.50;4996157;28;20050;-58
2022/10/23 00:06:47;;;;;;;4.03;1.52;;;;;;;24.17;45.33;100028.41;5013832;28;20471;-51
2022/10/23 00:09:17;;;;;;;5.15;1.50;;;;;;;24.18;44.92;100020.53;5014054;28;20026;-57
2022/10/23 00:11:47;;;;;;;8.27;1.83;;;;;;;24.15;45.01;100010.06;4996418;28;20030;-57
2022/10/23 00:14:16;;;;;;;5.53;1.50;;;;;;;24.21;44.83;100022.28;5013917;28;20049;-57
2022/10/23 00:16:46;;;;;;;6.82;1.98;;;;;;;24.16;44.93;100026.69;5013966;28;20470;-57
2022/10/23 00:19:14;;;;;;;8.80;1.95;;;;;;;24.17;44.97;100012.69;5013273;28;20045;-56
2022/10/23 00:21:43;;;;;;;6.55;1.42;;;;;;;24.12;45.37;100008.34;5013868;28;20084;-58
2022/10/23 00:24:11;;;;;;;5.28;1.42;;;;;;;24.13;45.04;100017.06;5013307;28;20025;-57
2022/10/23 00:26:40;;;;;;;5.00;1.50;;;;;;;24.12;45.15;100010.97;5013543;28;20029;-57
2022/10/23 00:29:09;;;;;;;5.07;1.95;;;;;;;24.09;44.98;100013.59;4996341;28;20037;-57
2022/10/23 00:31:38;;;;;;;8.13;1.92;;;;;;;24.08;45.58;100010.94;5013056;28;20033;-58
2022/10/23 00:34:07;;;;;;;3.92;1.08;;;;;;;24.05;45.39;100003.97;5013512;28;20386;-58
2022/10/23 00:36:35;;;;;;;5.65;1.38;;;;;;;24.04;45.32;99998.75;5013427;28;20066;-57
2022/10/23 00:39:04;;;;;;;6.40;1.60;;;;;;;24.03;45.25;99986.53;5012621;28;20029;-57
2022/10/23 00:41:32;;;;;;;4.63;1.45;;;;;;;23.95;45.27;99968.19;5013079;28;20025;-57
2022/10/23 00:44:30;;;;;;;7.05;2.03;;;;;;;23.99;45.80;99983.06;5013597;28;20478;-56
2022/10/23 00:47:00;;;;;;;4.75;1.50;;;;;;;24.04;45.35;99989.13;5012938;28;20030;-55
2022/10/23 00:49:28;;;;;;;10.93;2.53;;;;;;;24.01;45.19;99993.53;5013258;28;20030;-57
2022/10/23 00:52:01;;;;;;;7.30;2.00;;;;;;;24.00;45.56;99987.38;5013057;28;20034;-56
2022/10/23 00:54:33;;;;;;;6.95;1.80;;;;;;;23.96;45.69;99983.03;5012987;28;20041;-56
2022/10/23 00:57:03;;;;;;;4.85;1.27;;;;;;;23.96;45.52;99978.69;5013269;28;20058;-56
2022/10/23 00:59:32;;;;;;;5.43;1.13;;;;;;;23.92;45.70;99961.19;5012867;28;20030;-57
2022/10/23 01:02:01;;;;;;;5.05;1.60;;;;;;;23.91;45.51;99959.44;5013227;28;20030;-56
2022/10/23 01:04:29;;;;;;;3.63;1.35;;;;;;;23.83;45.42;99948.97;5012683;28;20148;-57
2022/10/23 01:07:23;;;;;;;3.55;1.15;;;;;;;23.89;45.67;99983.91;5013139;28;20406;-49
2022/10/23 01:09:56;;;;;;;4.72;1.23;;;;;;;23.96;45.79;100007.50;4995451;28;20026;-56
2022/10/23 01:12:27;;;;;;;4.20;1.20;;;;;;;23.96;45.54;100014.47;5012955;28;20422;-55
2022/10/23 01:15:02;;;;;;;3.85;1.20;;;;;;;23.99;45.52;100018.84;5012960;28;20069;-56
2022/10/23 01:17:36;;;;;;;;;;;;;;;24.04;45.43;100046.78;5013264;28;20042;-57
2022/10/23 01:20:30;;;;;;;6.30;1.23;;;;;;;24.11;45.24;100073.84;4995697;28;19924;-56
2022/10/23 01:23:22;;;;;;;5.35;2.17;;;;;;;24.13;44.87;100058.97;4989887;28;20073;-54
2022/10/23 01:26:18;;;;;;;6.35;1.40;;;;;;;24.07;45.25;100054.63;4989444;28;20045;-57
2022/10/23 01:29:06;;;;;;;5.20;1.35;;;;;;;24.05;45.21;100064.25;5007367;28;20091;-57
2022/10/23 01:31:49;;;;;;;6.50;1.60;;;;;;;24.11;45.27;100074.72;5003302;28;20066;-57
2022/10/23 01:34:23;;;;;;;4.97;1.63;;;;;;;24.05;45.10;100064.25;5012663;28;20030;-55
2022/10/23 01:36:53;;;;;;;5.82;1.30;;;;;;;24.05;45.08;100056.38;4995339;28;20033;-56
2022/10/23 01:39:26;;;;;;;4.40;1.58;;;;;;;24.06;45.07;100070.38;5012419;28;20034;-56
2022/10/23 01:41:59;;;;;;;4.72;1.83;;;;;;;24.05;45.32;100102.69;4995551;28;20030;-56
2022/10/23 01:44:41;;;;;;;5.38;1.40;;;;;;;24.05;45.00;100106.16;4994935;28;20033;-58
2022/10/23 01:47:11;;;;;;;5.03;1.63;;;;;;;24.05;45.23;100100.06;4995417;28;20025;-55
2022/10/23 01:49:40;;;;;;;5.75;1.75;;;;;;;24.06;44.88;100100.03;4995639;28;20018;-57
2022/10/23 01:52:11;;;;;;;4.60;1.55;;;;;;;24.05;45.21;100128.88;4998842;28;20022;-48
2022/10/23 01:54:42;;;;;;;5.03;1.63;;;;;;;24.01;44.99;100129.75;4999172;28;20109;-54
2022/10/23 01:57:14;;;;;;;7.38;1.98;;;;;;;24.01;45.13;100129.75;4998812;28;20022;-57
2022/10/23 01:59:49;;;;;;;6.55;1.45;;;;;;;23.98;45.01;100122.78;5016818;28;20022;-57
2022/10/23 02:02:18;;;;;;;8.02;1.80;;;;;;;23.95;45.37;100115.75;5016534;28;20026;-56
2022/10/23 02:04:55;;;;;;;4.55;1.10;;;;;;;23.89;45.29;100110.53;5015714;28;20042;-57
2022/10/23 02:07:24;;;;;;;5.22;1.25;;;;;;;23.90;45.34;100085.19;5016563;28;20059;-57
2022/10/23 02:09:52;;;;;;;3.47;1.40;;;;;;;23.86;45.57;100070.34;4998420;28;20052;-57
2022/10/23 02:12:27;;;;;;;4.30;1.02;;;;;;;23.82;45.42;100059.88;5016160;28;20030;-56
2022/10/23 02:15:11;;;;;;;4.68;1.30;;;;;;;23.83;45.57;100042.41;5015955;28;20034;-57
2022/10/23 02:17:46;;;;;;;3.95;1.23;;;;;;;23.79;45.56;100004.88;5015654;28;20026;-58
2022/10/23 02:20:37;;;;;;;3.65;1.13;;;;;;;23.77;45.60;99992.66;5015507;28;20394;-57
2022/10/23 02:23:35;;;;;;;6.10;1.80;;;;;;;23.79;45.73;99975.19;5005529;28;20084;-50
2022/10/23 02:26:12;;;;;;;3.28;1.15;;;;;;;23.78;45.77;99981.31;4993472;28;20125;-57
2022/10/23 02:28:46;;;;;;;4.05;1.17;;;;;;;23.80;45.33;99977.81;5015730;28;20022;-56
2022/10/23 02:31:17;;;;;;;5.03;1.23;;;;;;;23.80;45.55;99980.44;4998358;28;20049;-57
2022/10/23 02:33:47;;;;;;;3.38;1.13;;;;;;;23.78;45.44;99989.16;4998162;28;20057;-58
2022/10/23 02:36:16;;;;;;;3.42;1.15;;;;;;;23.78;45.56;99987.44;5015473;28;20466;-58
2022/10/23 02:38:46;;;;;;;3.65;1.42;;;;;;;23.82;45.56;99985.66;5015766;28;20029;-56
2022/10/23 02:41:39;;;;;;;3.17;0.90;;;;;;;23.81;45.45;99968.22;5015590;28;20022;-57
2022/10/23 02:44:30;;;;;;;4.68;1.10;;;;;;;23.75;45.26;99963.84;5008505;28;20041;-57
2022/10/23 02:47:36;;;;;;;5.40;1.45;;;;;;;23.76;45.49;99973.47;5015261;28;20040;-53
2022/10/23 02:50:27;;;;;;;3.78;0.98;;;;;;;23.79;45.61;100007.50;5008651;28;20038;-54
2022/10/23 02:53:33;;;;;;;4.97;1.48;;;;;;;23.80;45.08;100009.25;5007434;28;20042;-54
2022/10/23 02:56:28;;;;;;;5.60;1.25;;;;;;;23.80;45.14;100037.16;5006320;28;20069;-56
2022/10/23 02:59:23;;;;;;;3.53;1.00;;;;;;;23.77;45.49;100040.69;5007863;28;20038;-56
2022/10/23 03:02:01;;;;;;;2.85;0.88;;;;;;;23.86;45.10;100052.00;5014567;28;20422;-54
2022/10/23 03:04:30;;;;;;;2.85;1.05;;;;;;;23.85;45.21;100053.75;5014620;28;20061;-57
2022/10/23 03:06:59;;;;;;;4.32;1.25;;;;;;;23.79;45.49;100032.81;5015100;28;20470;-55
2022/10/23 03:09:28;;;;;;;6.97;1.85;;;;;;;23.76;45.18;100011.84;4997370;28;20026;-57
2022/10/23 03:11:57;;;;;;;5.28;1.52;;;;;;;23.75;45.21;100011.00;5014942;28;20034;-55
2022/10/23 03:14:25;;;;;;;3.30;1.35;;;;;;;23.75;45.47;99990.03;5014680;28;20025;-56
2022/10/23 03:16:54;;;;;;;3.40;1.00;;;;;;;23.74;45.19;99977.81;5014407;28;20048;-56
2022/10/23 03:19:22;;;;;;;3.92;1.00;;;;;;;23.73;45.49;99969.97;5014758;28;20127;-56
2022/10/23 03:21:51;;;;;;;2.80;0.98;;;;;;;23.73;45.26;99960.38;5014873;28;20029;-57
2022/10/23 03:24:20;;;;;;;2.42;1.00;;;;;;;23.71;45.25;99933.31;5014490;28;20415;-57
2022/10/23 03:26:48;;;;;;;3.55;1.00;;;;;;;23.71;45.36;99919.34;5014582;28;20033;-56
2022/10/23 03:29:17;;;;;;;2.75;1.17;;;;;;;23.72;45.49;99903.63;5014173;28;20041;-56
2022/10/23 03:31:46;;;;;;;2.72;0.68;;;;;;;23.71;45.07;99907.13;5014030;28;20026;-56
2022/10/23 03:34:14;;;;;;;1.95;0.85;;;;;;;23.77;45.17;99914.09;5014147;28;20069;-54
2022/10/23 03:36:43;;;;;;;5.13;1.45;;;;;;;23.75;45.19;99901.00;5014391;28;20479;-57
2022/10/23 03:39:12;;;;;;;2.45;0.95;;;;;;;23.74;45.04;99880.94;5014252;28;20033;-56
2022/10/23 03:41:41;;;;;;;4.55;1.33;;;;;;;23.72;45.49;99887.06;5014342;28;20109;-56
2022/10/23 03:44:09;;;;;;;2.58;1.10;;;;;;;23.70;45.06;99891.44;4996233;28;20033;-57
2022/10/23 03:46:38;;;;;;;1.80;0.88;;;;;;;23.69;45.49;99893.16;5013389;28;20467;-57
2022/10/23 03:49:06;;;;;;;4.18;0.85;;;;;;;23.67;45.39;99879.19;4996254;28;20030;-58
2022/10/23 03:51:35;;;;;;;3.50;1.02;;;;;;;23.71;45.41;99896.66;5014111;28;20030;-55
2022/10/23 03:54:04;;;;;;;2.28;0.93;;;;;;;23.73;45.20;99905.38;5014126;28;20053;-52
2022/10/23 03:56:32;;;;;;;2.95;1.10;;;;;;;23.72;45.12;99913.25;5013603;28;20548;-57
2022/10/23 03:59:01;;;;;;;3.53;1.13;;;;;;;23.75;45.24;99911.47;5014093;28;20033;-57
2022/10/23 04:01:29;;;;;;;2.40;1.15;;;;;;;23.70;45.37;99909.75;5014112;28;20034;-56
2022/10/23 04:03:58;;;;;;;2.55;0.88;;;;;;;23.69;45.38;99906.25;4996631;28;20482;-57
2022/10/23 04:06:27;;;;;;;2.58;0.85;;;;;;;23.72;44.95;99916.72;5014325;28;20037;-57
2022/10/23 04:08:55;;;;;;;3.67;1.17;;;;;;;23.74;45.26;99912.34;5013602;28;20022;-57
2022/10/23 04:11:24;;;;;;;2.15;0.80;;;;;;;23.71;45.13;99911.50;5013835;28;20038;-57
2022/10/23 04:13:52;;;;;;;3.28;0.88;;;;;;;23.72;45.39;99902.78;5012624;28;20037;-56
2022/10/23 04:16:20;;;;;;;4.35;1.20;;;;;;;23.70;45.37;99907.13;4996297;28;20132;-56
2022/10/23 04:18:49;;;;;;;4.63;1.05;;;;;;;23.69;45.08;99911.50;5013770;28;20053;-57
2022/10/23 04:21:18;;;;;;;3.90;0.90;;;;;;;23.72;45.14;99921.97;5013569;28;20026;-57
2022/10/23 04:23:45;;;;;;;2.63;0.68;;;;;;;23.77;44.99;99919.31;5013626;28;20033;-57
2022/10/23 04:26:14;;;;;;;3.28;0.70;;;;;;;23.80;45.18;99916.69;5013590;28;20069;-57
2022/10/23 04:28:42;;;;;;;3.17;0.93;;;;;;;23.85;44.98;99911.44;5013462;28;20041;-57
2022/10/23 04:31:11;;;;;;;3.97;1.00;;;;;;;23.79;45.12;99913.22;5013331;28;20022;-57
2022/10/23 04:33:39;;;;;;;2.15;0.80;;;;;;;23.73;44.89;99896.66;5012942;28;20022;-58
2022/10/23 04:36:08;;;;;;;2.35;0.90;;;;;;;23.79;44.79;99896.63;5013625;28;20029;-53
2022/10/23 04:38:37;;;;;;;2.75;0.70;;;;;;;23.79;45.07;99894.00;5013717;28;20070;-57
2022/10/23 04:41:05;;;;;;;1.98;0.75;;;;;;;23.77;44.72;99899.25;5013249;28;20021;-57
2022/10/23 04:43:33;;;;;;;2.15;0.70;;;;;;;23.78;44.74;99903.63;5013066;28;20033;-57
2022/10/23 04:46:02;;;;;;;2.42;1.10;;;;;;;23.75;44.88;99897.50;4995615;28;20113;-57
2022/10/23 04:48:30;;;;;;;3.33;1.05;;;;;;;23.83;44.99;99899.22;5013647;28;20375;-57
2022/10/23 04:51:01;;;;;;;2.75;1.17;;;;;;;23.79;44.68;99884.41;5013371;28;20048;-56
2022/10/23 04:53:30;;;;;;;4.07;0.98;;;;;;;23.81;45.04;99871.31;4994931;28;20030;-56
2022/10/23 04:56:00;;;;;;;3.60;1.13;;;;;;;23.87;44.76;99866.06;5012673;28;20069;-57
2022/10/23 04:58:29;;;;;;;2.20;0.90;;;;;;;23.88;44.75;99872.16;5013127;28;20107;-57
2022/10/23 05:00:58;;;;;;;3.05;0.82;;;;;;;23.86;44.71;99852.94;5012737;28;20113;-50
2022/10/23 05:03:27;;;;;;;2.20;0.80;;;;;;;23.87;44.75;99852.06;5013236;28;20482;-53
2022/10/23 05:05:56;;;;;;;1.88;0.60;;;;;;;23.86;44.55;99842.47;5012989;28;20030;-56
2022/10/23 05:08:25;;;;;;;2.03;0.77;;;;;;;23.77;44.81;99844.28;5012911;28;20414;-56
2022/10/23 05:10:53;;;;;;;2.55;0.63;;;;;;;23.77;44.65;99844.28;4995579;28;20053;-56
2022/10/23 05:13:22;;;;;;;3.45;1.02;;;;;;;23.83;44.96;99861.69;5012944;28;20033;-55
2022/10/23 05:15:51;;;;;;;2.47;0.90;;;;;;;23.82;44.59;99834.66;5013255;28;20041;-57
2022/10/23 05:18:25;;;;;;;2.33;0.82;;;;;;;23.81;44.62;99834.63;5012819;28;20371;-56
2022/10/23 05:20:58;;;;;;;2.05;0.80;;;;;;;23.78;44.90;99830.31;5013246;28;20454;-55
2022/10/23 05:23:27;;;;;;;2.53;0.77;;;;;;;23.81;44.97;99848.63;4995421;28;20053;-56
2022/10/23 05:25:55;;;;;;;2.33;0.95;;;;;;;23.74;44.72;99846.03;5015269;28;20087;-56
2022/10/23 05:28:24;;;;;;;2.25;0.85;;;;;;;23.75;45.16;99848.63;5016415;28;20022;-56
2022/10/23 05:30:53;;;;;;;2.05;0.68;;;;;;;23.75;44.96;99838.16;4999182;28;20053;-52
2022/10/23 05:33:21;;;;;;;1.95;0.73;;;;;;;23.82;44.63;99833.75;5016513;28;20056;-56
2022/10/23 05:35:50;;;;;;;0.95;0.60;;;;;;;23.77;44.59;99836.41;5016695;28;20017;-56
2022/10/23 05:38:19;;;;;;;2.00;0.57;;;;;;;23.78;45.06;99832.03;5016604;28;20072;-57
2022/10/23 05:40:48;;;;;;;3.08;0.90;;;;;;;23.78;44.92;99837.28;4999289;28;20033;-56
2022/10/23 05:43:16;;;;;;;2.45;0.90;;;;;;;23.79;44.84;99852.09;4999238;28;20116;-56
2022/10/23 05:45:45;;;;;;;4.38;1.17;;;;;;;23.81;44.73;99847.72;5016443;28;20471;-56
2022/10/23 05:48:16;;;;;;;1.73;0.73;;;;;;;23.82;44.85;99850.38;5016191;28;20038;-54
2022/10/23 05:50:44;;;;;;;4.05;1.58;;;;;;;23.79;44.93;99839.91;5016404;28;20026;-55
2022/10/23 05:53:13;;;;;;;3.33;0.82;;;;;;;23.79;44.82;99839.91;5016014;28;20031;-56
2022/10/23 05:55:41;;;;;;;2.72;0.75;;;;;;;23.77;44.69;99828.56;5016377;28;20059;-57
2022/10/23 05:58:09;;;;;;;3.08;1.02;;;;;;;23.78;44.60;99814.59;5016072;28;20034;-56
2022/10/23 06:00:38;;;;;;;1.80;1.00;;;;;;;23.80;44.87;99823.31;5016466;28;20028;-56
2022/10/23 06:03:06;;;;;;;2.97;0.70;;;;;;;23.81;44.90;99824.16;5015771;28;20030;-56
2022/10/23 06:05:35;;;;;;;1.92;0.95;;;;;;;23.80;44.60;99820.69;4999055;28;20113;-50
2022/10/23 06:08:04;;;;;;;1.90;0.60;;;;;;;23.80;44.49;99820.69;5016225;28;20545;-55
2022/10/23 06:10:33;;;;;;;3.97;0.85;;;;;;;23.79;44.80;99818.94;5015745;28;20425;-57
2022/10/23 06:13:02;;;;;;;2.55;0.73;;;;;;;23.82;44.21;99813.72;5016023;28;20525;-56
2022/10/23 06:15:30;;;;;;;1.90;0.70;;;;;;;23.80;44.64;99804.09;5016221;28;20533;-56
2022/10/23 06:18:03;;;;;;;3.28;0.77;;;;;;;23.78;44.44;99798.88;5016027;28;20426;-55
2022/10/23 06:20:36;;;;;;;2.65;0.70;;;;;;;23.81;44.53;99796.25;5016133;28;20471;-57
2022/10/23 06:23:05;;;;;;;1.27;0.77;;;;;;;23.83;44.74;99815.41;5015743;28;20041;-57
2022/10/23 06:25:33;;;;;;;1.73;0.70;;;;;;;23.84;44.25;99863.44;5016031;28;20026;-53
2022/10/23 06:28:02;;;;;;;2.67;1.00;;;;;;;23.79;44.38;99847.75;5015844;28;20041;-56
2022/10/23 06:30:30;;;;;;;4.07;1.17;;;;;;;23.85;44.52;99825.00;5015957;28;20422;-57
2022/10/23 06:32:58;;;;;;;2.88;0.95;;;;;;;23.82;44.62;99786.63;5015444;28;20026;-57
2022/10/23 06:35:28;;;;;;;2.17;0.70;;;;;;;23.88;44.37;99815.41;5015531;28;20026;-56
2022/10/23 06:37:56;;;;;;;2.88;0.80;;;;;;;23.88;44.00;99817.16;5014054;28;20394;-57
2022/10/23 06:40:25;;;;;;;3.45;0.77;;;;;;;23.89;43.99;99797.94;5015832;28;20021;-57
2022/10/23 06:42:56;;;;;;;2.30;0.75;;;;;;;23.85;44.52;99793.59;5015543;28;20033;-57
2022/10/23 06:45:24;;;;;;;3.08;0.75;;;;;;;23.92;44.19;99787.44;4998027;28;20101;-57
2022/10/23 06:47:53;;;;;;;2.03;0.70;;;;;;;23.89;44.26;99784.84;5015038;28;20054;-56
2022/10/23 06:50:22;;;;;;;2.53;0.85;;;;;;;23.87;44.18;99790.09;4997872;28;20044;-57
2022/10/23 06:52:50;;;;;;;1.88;0.80;;;;;;;23.88;44.34;99788.34;5015342;28;20033;-55
2022/10/23 06:55:19;;;;;;;2.85;0.98;;;;;;;23.90;43.99;99768.25;5015330;28;20550;-56
2022/10/23 06:57:48;;;;;;;1.55;0.63;;;;;;;23.92;44.05;99762.13;5015307;28;20036;-55
2022/10/23 07:00:17;;;;;;;3.08;0.85;;;;;;;23.88;44.07;99744.69;5015060;28;20031;-55
2022/10/23 07:02:46;;;;;;;2.22;0.63;;;;;;;23.87;44.18;99742.06;5014999;28;20026;-55
2022/10/23 07:05:14;;;;;;;2.97;0.88;;;;;;;23.83;44.08;99726.38;5014908;28;20054;-55
2022/10/23 07:07:42;;;;;;;3.15;0.93;;;;;;;23.88;44.46;99739.47;5015002;28;20034;-56
2022/10/23 07:10:11;;;;;;;5.68;0.85;;;;;;;23.88;44.22;99735.97;5014992;28;20088;-56
2022/10/23 07:12:39;;;;;;;2.00;0.68;;;;;;;23.87;44.01;99722.00;4997394;28;20448;-56
2022/10/23 07:15:08;;;;;;;1.92;0.80;;;;;;;23.72;44.52;99706.38;5014472;28;20026;-56
2022/10/23 07:17:37;;;;;;;1.30;0.57;;;;;;;23.85;44.30;99718.53;5015325;28;20022;-56
2022/10/23 07:20:05;;;;;;;3.45;0.80;;;;;;;23.82;44.18;99722.03;5014434;28;20414;-55
2022/10/23 07:22:33;;;;;;;1.10;0.60;;;;;;;23.86;44.29;99716.75;5014641;28;20040;-55
2022/10/23 07:25:02;;;;;;;3.13;1.00;;;;;;;23.84;44.15;99719.41;5014624;28;20036;-56
2022/10/23 07:27:31;;;;;;;1.92;0.80;;;;;;;23.83;44.18;99718.50;5014244;28;20037;-53
2022/10/23 07:29:59;;;;;;;3.75;0.88;;;;;;;23.83;44.41;99721.13;5014812;28;20038;-55
2022/10/23 07:32:27;;;;;;;3.10;0.80;;;;;;;23.85;43.95;99702.81;5014455;28;20402;-56
2022/10/23 07:34:56;;;;;;;2.97;0.90;;;;;;;23.88;44.02;99710.66;5014707;28;20021;-56
2022/10/23 07:37:25;;;;;;;2.25;0.50;;;;;;;23.87;43.98;99711.53;5014874;28;20042;-57
2022/10/23 07:39:52;;;;;;;4.20;1.00;;;;;;;23.90;43.99;99713.25;5014089;28;20087;-56
2022/10/23 07:42:21;;;;;;;2.22;0.98;;;;;;;23.91;43.94;99707.13;5014381;28;20025;-56
2022/10/23 07:44:50;;;;;;;2.20;0.50;;;;;;;23.92;44.28;99696.63;5014559;28;20022;-56
2022/10/23 07:47:18;;;;;;;3.22;0.80;;;;;;;24.00;44.02;99685.28;5013942;28;20470;-53
2022/10/23 07:49:48;;;;;;;2.70;0.95;;;;;;;24.00;43.77;99674.81;5013788;28;20044;-53
2022/10/23 07:52:17;;;;;;;1.58;0.73;;;;;;;24.02;43.83;99680.91;4996910;28;20386;-56
2022/10/23 07:54:45;;;;;;;1.85;0.70;;;;;;;24.09;43.87;99678.22;5013611;28;20022;-56
2022/10/23 07:57:14;;;;;;;3.35;0.77;;;;;;;24.09;43.45;99685.19;5014001;28;20053;-55
2022/10/23 07:59:42;;;;;;;4.72;1.13;;;;;;;24.13;43.55;99686.91;5013765;28;20104;-57
2022/10/23 08:02:13;;;;;;;3.25;1.20;;;;;;;24.15;43.83;99692.16;5013900;28;20441;-55
2022/10/23 08:04:41;;;;;;;3.72;1.17;;;;;;;24.23;43.90;99677.22;5013790;28;20109;-57
2022/10/23 08:07:10;;;;;;;5.53;1.58;;;;;;;24.28;43.57;99672.84;4995889;28;20053;-56
2022/10/23 08:09:38;;;;;;;4.30;1.00;;;;;;;24.25;44.02;99662.38;5013952;28;20062;-57
2022/10/23 08:12:07;;;;;;;4.35;1.63;;;;;;;24.32;43.73;99658.81;4995830;28;20038;-57
2022/10/23 08:14:35;;;;;;;3.13;1.08;;;;;;;24.28;43.72;99639.63;5013665;28;20032;-57
2022/10/23 08:17:04;;;;;;;2.55;1.02;;;;;;;24.22;44.18;99639.69;5014069;28;20041;-55
2022/10/23 08:19:32;;;;;;;3.70;1.35;;;;;;;24.29;43.94;99648.38;5013882;28;20048;-57
2022/10/23 08:22:01;;;;;;;3.33;1.00;;;;;;;24.34;44.20;99651.78;5013517;28;20037;-57
2022/10/23 08:24:29;;;;;;;3.75;1.23;;;;;;;24.33;44.30;99644.81;5013297;28;20080;-57
2022/10/23 08:26:58;;;;;;;4.75;1.00;;;;;;;24.33;44.02;99642.19;5013157;28;20061;-53
2022/10/23 08:29:26;;;;;;;2.00;1.00;;;;;;;24.35;44.28;99635.19;5013854;28;20026;-57
2022/10/23 08:31:56;;;;;;;3.28;0.98;;;;;;;24.37;44.48;99622.94;5012890;28;20034;-57
2022/10/23 08:34:26;;;;;;;3.80;1.13;;;;;;;24.39;44.24;99623.78;5013409;28;20018;-57
2022/10/23 08:36:54;;;;;;;4.45;1.17;;;;;;;24.39;44.71;99612.47;4996627;28;20022;-56
2022/10/23 08:39:23;;;;;;;3.60;1.02;;;;;;;24.40;44.45;99608.94;5013212;28;20079;-57
2022/10/23 08:41:53;;;;;;;6.28;1.80;;;;;;;24.38;45.02;99632.53;5013782;28;20030;-56
2022/10/23 08:44:26;;;;;;;6.65;1.50;;;;;;;24.42;45.21;99636.00;4996147;28;20030;-57
2022/10/23 08:47:17;;;;;;;5.53;1.42;;;;;;;24.39;44.33;99626.41;4995912;28;20038;-57
2022/10/23 08:49:52;;;;;;;3.50;1.00;;;;;;;24.42;44.94;99622.88;5013194;28;20430;-57
2022/10/23 08:52:21;;;;;;;;;;;;;;;24.42;44.67;99615.03;4995708;28;20029;-54
2022/10/23 08:55:01;;;;;;;4.63;1.05;;;;;;;24.46;44.24;99605.41;5013415;28;19914;-57
2022/10/23 08:57:34;;;;;;;3.28;1.00;;;;;;;24.43;44.68;99595.78;5012894;28;20029;-56
2022/10/23 09:00:08;;;;;;;3.42;1.15;;;;;;;24.41;44.79;99587.06;5012860;28;20026;-55
2022/10/23 09:02:43;;;;;;;4.28;1.20;;;;;;;24.39;44.82;99583.63;4995885;28;20025;-56
2022/10/23 09:05:20;;;;;;;3.63;1.02;;;;;;;24.36;44.50;99579.25;5012976;28;20406;-57
2022/10/23 09:07:52;;;;;;;5.47;1.33;;;;;;;24.41;44.84;99605.41;5013155;28;20037;-55
2022/10/23 09:10:48;;;;;;;3.53;1.08;;;;;;;24.43;44.81;99595.78;4995879;28;20097;-55
2022/10/23 09:13:39;;;;;;;3.85;1.25;;;;;;;24.45;44.66;99611.53;5006479;28;20451;-56
2022/10/23 09:16:13;;;;;;;4.55;1.02;;;;;;;24.45;44.45;99622.00;5004030;28;20045;-56
2022/10/23 09:18:43;;;;;;;4.60;1.33;;;;;;;24.46;44.59;99600.16;4995811;28;20041;-57
2022/10/23 09:21:11;;;;;;;7.53;1.63;;;;;;;24.52;44.48;99600.06;5012947;28;20482;-56
2022/10/23 09:23:40;;;;;;;4.55;1.20;;;;;;;24.49;44.24;99592.25;5013005;28;20140;-56
2022/10/23 09:26:15;;;;;;;4.93;1.10;;;;;;;24.46;44.32;99584.44;5013133;28;20028;-56
2022/10/23 09:28:49;;;;;;;4.13;1.10;;;;;;;24.47;44.36;99594.88;5013535;28;20050;-56
2022/10/23 09:31:18;;;;;;;6.68;1.73;;;;;;;24.50;44.32;99580.84;5013092;28;20037;-56
2022/10/23 09:33:57;;;;;;;4.45;1.27;;;;;;;24.50;44.38;99589.59;4995715;28;20105;-56
2022/10/23 09:36:28;;;;;;;3.53;1.15;;;;;;;24.46;44.13;99585.28;5012802;28;20026;-56
2022/10/23 09:38:58;;;;;;;5.05;0.93;;;;;;;24.50;44.13;99571.25;5012891;28;20364;-56
2022/10/23 09:41:30;;;;;;;3.65;0.90;;;;;;;24.49;44.35;99569.53;5012634;28;20033;-56
2022/10/23 09:44:19;;;;;;;2.20;0.85;;;;;;;24.46;44.13;99574.78;5012785;28;20057;-56
2022/10/23 09:46:49;;;;;;;2.35;0.70;;;;;;;24.46;44.29;99571.31;5012898;28;20026;-56
2022/10/23 09:49:20;;;;;;;3.03;0.90;;;;;;;24.42;44.08;99579.22;5012348;28;20461;-57
2022/10/23 09:52:08;;;;;;;4.60;1.23;;;;;;;24.47;44.35;99643.84;4994851;28;20080;-56
2022/10/23 09:54:44;;;;;;;3.13;0.95;;;;;;;24.43;44.48;99624.63;5003638;28;20038;-56
2022/10/23 09:57:32;;;;;;;3.85;0.93;;;;;;;24.36;44.55;99644.78;4995234;28;20014;-57
2022/10/23 10:00:12;;;;;;;3.08;0.80;;;;;;;24.36;44.56;99673.63;5012467;28;20034;-57
2022/10/23 10:02:42;;;;;;;5.00;1.25;;;;;;;24.37;44.07;99648.28;5012335;28;20033;-57
2022/10/23 10:05:31;;;;;;;3.80;1.23;;;;;;;24.33;44.26;99615.97;5012329;28;20095;-57
2022/10/23 10:08:05;;;;;;;2.90;0.80;;;;;;;24.38;44.08;99595.84;5003387;28;20133;-57
2022/10/23 10:10:37;;;;;;;3.22;1.02;;;;;;;24.47;43.98;99589.63;4995693;28;20033;-56
2022/10/23 10:13:33;;;;;;;6.32;1.50;;;;;;;24.41;43.91;99587.06;5016226;28;20065;-57
2022/10/23 10:16:25;;;;;;;4.13;1.15;;;;;;;24.46;44.05;99600.16;5015523;28;20033;-57
2022/10/23 10:19:32;;;;;;;4.05;1.23;;;;;;;24.43;43.85;99590.53;5007127;28;20076;-56
2022/10/23 10:22:25;;;;;;;2.75;0.82;;;;;;;24.45;43.79;99577.44;5015779;28;20034;-57
2022/10/23 10:25:14;;;;;;;4.82;1.40;;;;;;;24.53;43.59;99575.59;4998945;28;20068;-57
2022/10/23 10:28:06;;;;;;;4.00;1.30;;;;;;;24.55;43.78;99579.06;4998420;28;20026;-57
2022/10/23 10:31:01;;;;;;;5.03;0.90;;;;;;;24.59;43.45;99562.41;5015733;28;20057;-57
2022/10/23 10:33:37;;;;;;;6.30;1.58;;;;;;;24.51;43.97;99551.13;5005835;28;20038;-56
2022/10/23 10:36:33;;;;;;;5.28;1.20;;;;;;;24.45;43.88;99554.72;5015973;28;20022;-57
2022/10/23 10:39:02;;;;;;;5.80;1.45;;;;;;;24.39;44.12;99554.78;5009132;28;20076;-57
2022/10/23 10:41:40;;;;;;;4.85;1.02;;;;;;;24.33;44.00;99555.69;4998003;28;20049;-57
2022/10/23 10:44:31;;;;;;;4.32;1.00;;;;;;;24.32;43.92;99561.84;4998371;28;20033;-57
2022/10/23 10:47:42;;;;;;;6.43;1.08;;;;;;;24.36;44.20;99600.22;5015132;28;20033;-58
2022/10/23 10:50:31;;;;;;;8.07;2.13;;;;;;;24.45;44.13;99637.72;4998115;28;20092;-57
2022/10/23 10:53:19;;;;;;;5.38;1.23;;;;;;;24.54;43.67;99633.28;4988724;28;20117;-57
2022/10/23 10:55:51;;;;;;;6.55;1.70;;;;;;;24.57;43.61;99638.44;4997950;28;20022;-57
2022/10/23 10:58:23;;;;;;;5.43;1.25;;;;;;;24.54;43.69;99622.78;5015636;28;20121;-57
2022/10/23 11:00:55;;;;;;;5.70;1.50;;;;;;;24.49;43.67;99614.09;5015266;28;20479;-56
2022/10/23 11:03:30;;;;;;;5.70;1.40;;;;;;;24.53;43.75;99625.41;5014750;28;20030;-56
2022/10/23 11:06:01;;;;;;;3.72;1.25;;;;;;;24.53;43.51;99621.03;5015141;28;20030;-54
2022/10/23 11:08:34;;;;;;;6.72;1.95;;;;;;;24.55;43.73;99615.78;4997744;28;20033;-56
2022/10/23 11:11:17;;;;;;;3.60;1.20;;;;;;;24.54;43.49;99621.91;5014945;28;20037;-56
2022/10/23 11:13:46;;;;;;;5.50;1.42;;;;;;;24.55;43.76;99616.66;5014758;28;20053;-56
2022/10/23 11:16:19;;;;;;;7.57;1.45;;;;;;;24.52;43.73;99607.94;5014764;28;20040;-56
2022/10/23 11:19:12;;;;;;;3.85;1.20;;;;;;;24.51;43.68;99614.06;5014380;28;20467;-57
2022/10/23 11:21:45;;;;;;;2.30;1.00;;;;;;;24.53;43.86;99614.91;5005427;28;20045;-56
2022/10/23 11:24:40;;;;;;;4.18;1.30;;;;;;;24.47;43.59;99608.00;4996740;28;20458;-57
2022/10/23 11:27:31;;;;;;;3.15;1.33;;;;;;;24.48;43.98;99609.72;5006878;28;20041;-57
2022/10/23 11:30:37;;;;;;;4.78;1.20;;;;;;;24.51;43.96;99603.56;4988717;28;20045;-56
2022/10/23 11:33:34;;;;;;;3.70;0.93;;;;;;;24.47;43.76;99601.88;5005865;28;20034;-54
2022/10/23 11:36:13;;;;;;;4.65;1.15;;;;;;;24.53;43.54;99594.81;5014664;28;20434;-55
2022/10/23 11:38:44;;;;;;;2.63;0.73;;;;;;;24.52;44.00;99597.44;5014487;28;20038;-57
2022/10/23 11:41:24;;;;;;;2.88;1.10;;;;;;;24.48;43.45;99590.53;5014127;28;20022;-54
2022/10/23 11:43:54;;;;;;;4.25;1.48;;;;;;;24.50;44.06;99591.34;5014218;28;20030;-57
2022/10/23 11:46:24;;;;;;;5.28;1.20;;;;;;;24.52;43.86;99590.47;5013598;28;20030;-57
2022/10/23 11:48:54;;;;;;;3.20;1.23;;;;;;;24.53;43.96;99586.97;5014262;28;20071;-56
2022/10/23 11:51:41;;;;;;;3.85;1.52;;;;;;;24.48;44.09;99582.66;4980692;28;20466;-56
2022/10/23 11:54:23;;;;;;;4.05;1.50;;;;;;;24.49;44.19;99573.91;5014053;28;20506;-56
2022/10/23 11:56:52;;;;;;;3.17;0.90;;;;;;;24.53;43.96;99576.47;5014512;28;20037;-56
2022/10/23 11:59:31;;;;;;;5.72;1.25;;;;;;;24.47;44.26;99579.16;4996218;28;20030;-57
2022/10/23 12:02:03;;;;;;;3.33;1.08;;;;;;;24.50;44.18;99575.63;4996335;28;20073;-56